M/T Pazar — TCMC — position and weather

sailwx.info

Track history (hours):
 
Tides and Currents Weather Stations Pressure Air Temp Water Temp Dewpoint Dewpoint Depression Visibility Wind Speed Wind Dir Waves Ship Positions

M/T Pazar

Last reported at 2015-Apr-17 12:03 UTC. Time now 2015-Apr-25 12:31 UTC.
Position N 34°44' E 010°46'.
Warning: this ship's position is 8 days out of date.

Length 85 m; draft 5.6 m.

Type: Ship (hazmat cat B). MMSI: 271000251.

Date/timePositionNaut miles runAvg speedWind from/ knotsBaromVisibWave heightAir tempDewpointWater temp
2015-Apr-17 12:03N 34°44' E 010°46'4 7.5
2015-Apr-17 11:29N 34°41' E 010°50'68 4.5
2015-Apr-16 20:21N 35°31' E 011°46'810.3
2015-Apr-16 19:33N 35°39' E 011°44'1010.4
2015-Apr-16 18:33N 35°49' E 011°41'1010.1
2015-Apr-16 17:33N 35°59' E 011°38'1010.4
2015-Apr-16 16:33N 36°09' E 011°35'1110.5
2015-Apr-16 15:29N 36°20' E 011°32'37510.1
2015-Apr-15 02:23N 40°60' E 006°13'6610.7
2015-Apr-14 20:15N 41°52' E 005°19'1910.5
2015-Apr-14 18:24N 42°07' E 005°03'1111.2
2015-Apr-14 17:24N 42°16' E 004°54'1010.2
2015-Apr-14 16:26N 42°24' E 004°46'1413.2
2015-Apr-14 15:21N 42°35' E 004°34'6 7.5
2015-Apr-14 14:31N 42°41' E 004°29'1010.4
2015-Apr-14 13:31N 42°49' E 004°21'1010.8
2015-Apr-14 12:33N 42°57' E 004°12'1110.9
2015-Apr-14 11:32N 43°06' E 004°03'1311.1
2015-Apr-14 10:20N 43°16' E 003°51'910.8
2015-Apr-14 09:29N 43°24' E 003°44'1 0.1
2015-Apr-13 20:20N 43°24' E 003°43'0 0.0
2015-Apr-13 17:20N 43°24' E 003°43'0 0.0
2015-Apr-13 16:24N 43°24' E 003°43'1 1.0
2015-Apr-13 15:32N 43°24' E 003°44'2 2.0
2015-Apr-13 14:33N 43°22' E 003°44'0 0.2
2015-Apr-13 13:13N 43°22' E 003°44'0 0.0
2015-Apr-13 12:14N 43°22' E 003°44'0 0.0
2015-Apr-12 18:07N 43°22' E 003°44'0 0.0
2015-Apr-12 17:29N 43°22' E 003°44'0 0.0
2015-Apr-12 15:10N 43°22' E 003°44'0 0.0
2015-Apr-12 14:33N 43°22' E 003°44'4 3.5
2015-Apr-12 13:33N 43°19' E 003°45'1211.4
2015-Apr-12 12:33N 43°07' E 003°46'1512.4
2015-Apr-12 11:22N 42°53' E 003°40'1011.8
2015-Apr-12 10:33N 42°44' E 003°37'2511.8
2015-Apr-12 08:24N 42°19' E 003°27'2311.7
2015-Apr-12 06:27N 41°57' E 003°18'1111.7
2015-Apr-12 05:32N 41°48' E 003°11'1211.9
2015-Apr-12 04:33N 41°38' E 003°02'1211.9
2015-Apr-12 03:30N 41°29' E 002°52'1111.4
2015-Apr-12 02:33N 41°19' E 002°44'1111.0
2015-Apr-12 01:32N 41°10' E 002°36'1111.2
2015-Apr-12 00:31N 41°00' E 002°28'1111.4
2015-Apr-11 23:32N 40°51' E 002°20'1111.6
2015-Apr-11 22:33N 40°42' E 002°12'1211.8
2015-Apr-11 21:33N 40°32' E 002°03'1111.5
2015-Apr-11 20:33N 40°23' E 001°54'1110.9
2015-Apr-11 19:33N 40°14' E 001°46'1110.8
2015-Apr-11 18:33N 40°05' E 001°38'1110.9
2015-Apr-11 17:33N 39°56' E 001°30'1110.8
2015-Apr-11 16:33N 39°47' E 001°22'11111.1
2015-Apr-11 06:33N 38°14' E 000°03'1211.6
2015-Apr-11 05:30N 38°04' W 000°05'1411.3
2015-Apr-11 04:16N 37°52' W 000°15'911.7
2015-Apr-11 03:31N 37°45' W 000°22'1010.8
2015-Apr-11 02:33N 37°36' W 000°29'1110.6
2015-Apr-11 01:33N 37°29' W 000°38'1310.9
2015-Apr-11 00:23N 37°20' W 000°51'227 9.5
2015-Apr-10 00:25N 35°56' W 005°14'5 5.7
2015-Apr-09 23:32N 35°54' W 005°19'0 0.0
2015-Apr-09 22:32N 35°54' W 005°19'0 0.0
2015-Apr-09 21:32N 35°54' W 005°19'1 0.6
2015-Apr-09 20:33N 35°54' W 005°19'0 0.4
2015-Apr-09 19:34N 35°55' W 005°19'1 1.0
2015-Apr-09 18:28N 35°55' W 005°20'0 0.0
2015-Apr-09 17:31N 35°55' W 005°20'0 0.0
2015-Apr-09 16:28N 35°55' W 005°20'0 0.1
2015-Apr-09 15:31N 35°55' W 005°20'0 0.1
2015-Apr-09 14:31N 35°55' W 005°20'0 0.0
2015-Apr-09 13:31N 35°55' W 005°20'0 0.0
2015-Apr-09 12:28N 35°55' W 005°20'0 0.0
2015-Apr-09 11:31N 35°55' W 005°20'0 0.0
2015-Apr-09 10:31N 35°55' W 005°20'0 0.0
2015-Apr-09 09:31N 35°55' W 005°20'0 0.0
2015-Apr-09 08:33N 35°55' W 005°20'0 0.0
2015-Apr-09 07:33N 35°55' W 005°20'7 6.8
2015-Apr-09 06:33N 35°56' W 005°28'  
Track history (hours):
 
Tides and Currents Weather Stations Pressure Air Temp Water Temp Dewpoint Dewpoint Depression Visibility Wind Speed Wind Dir Waves Ship Positions

M/T Pazar

Last reported at 2015-Apr-17 12:03 UTC. Time now 2015-Apr-25 12:31 UTC.
Position N 34°44' E 010°46'.
Warning: this ship's position is 8 days out of date.

Length 85 m; draft 5.6 m.

Type: Ship (hazmat cat B). MMSI: 271000251.

Date/timePositionNaut miles runAvg speedWind from/ knotsBaromVisibWave heightAir tempDewpointWater temp
2015-Apr-17 12:03N 34°44' E 010°46'4 7.5
2015-Apr-17 11:29N 34°41' E 010°50'68 4.5
2015-Apr-16 20:21N 35°31' E 011°46'810.3
2015-Apr-16 19:33N 35°39' E 011°44'1010.4
2015-Apr-16 18:33N 35°49' E 011°41'1010.1
2015-Apr-16 17:33N 35°59' E 011°38'1010.4
2015-Apr-16 16:33N 36°09' E 011°35'1110.5
2015-Apr-16 15:29N 36°20' E 011°32'37510.1
2015-Apr-15 02:23N 40°60' E 006°13'6610.7
2015-Apr-14 20:15N 41°52' E 005°19'1910.5
2015-Apr-14 18:24N 42°07' E 005°03'1111.2
2015-Apr-14 17:24N 42°16' E 004°54'1010.2
2015-Apr-14 16:26N 42°24' E 004°46'1413.2
2015-Apr-14 15:21N 42°35' E 004°34'6 7.5
2015-Apr-14 14:31N 42°41' E 004°29'1010.4
2015-Apr-14 13:31N 42°49' E 004°21'1010.8
2015-Apr-14 12:33N 42°57' E 004°12'1110.9
2015-Apr-14 11:32N 43°06' E 004°03'1311.1
2015-Apr-14 10:20N 43°16' E 003°51'910.8
2015-Apr-14 09:29N 43°24' E 003°44'1 0.1
2015-Apr-13 20:20N 43°24' E 003°43'0 0.0
2015-Apr-13 17:20N 43°24' E 003°43'0 0.0
2015-Apr-13 16:24N 43°24' E 003°43'1 1.0
2015-Apr-13 15:32N 43°24' E 003°44'2 2.0
2015-Apr-13 14:33N 43°22' E 003°44'0 0.2
2015-Apr-13 13:13N 43°22' E 003°44'0 0.0
2015-Apr-13 12:14N 43°22' E 003°44'0 0.0
2015-Apr-12 18:07N 43°22' E 003°44'0 0.0
2015-Apr-12 17:29N 43°22' E 003°44'0 0.0
2015-Apr-12 15:10N 43°22' E 003°44'0 0.0
2015-Apr-12 14:33N 43°22' E 003°44'4 3.5
2015-Apr-12 13:33N 43°19' E 003°45'1211.4
2015-Apr-12 12:33N 43°07' E 003°46'1512.4
2015-Apr-12 11:22N 42°53' E 003°40'1011.8
2015-Apr-12 10:33N 42°44' E 003°37'2511.8
2015-Apr-12 08:24N 42°19' E 003°27'2311.7
2015-Apr-12 06:27N 41°57' E 003°18'1111.7
2015-Apr-12 05:32N 41°48' E 003°11'1211.9
2015-Apr-12 04:33N 41°38' E 003°02'1211.9
2015-Apr-12 03:30N 41°29' E 002°52'1111.4
2015-Apr-12 02:33N 41°19' E 002°44'1111.0
2015-Apr-12 01:32N 41°10' E 002°36'1111.2
2015-Apr-12 00:31N 41°00' E 002°28'1111.4
2015-Apr-11 23:32N 40°51' E 002°20'1111.6
2015-Apr-11 22:33N 40°42' E 002°12'1211.8
2015-Apr-11 21:33N 40°32' E 002°03'1111.5
2015-Apr-11 20:33N 40°23' E 001°54'1110.9
2015-Apr-11 19:33N 40°14' E 001°46'1110.8
2015-Apr-11 18:33N 40°05' E 001°38'1110.9
2015-Apr-11 17:33N 39°56' E 001°30'1110.8
2015-Apr-11 16:33N 39°47' E 001°22'11111.1
2015-Apr-11 06:33N 38°14' E 000°03'1211.6
2015-Apr-11 05:30N 38°04' W 000°05'1411.3
2015-Apr-11 04:16N 37°52' W 000°15'911.7
2015-Apr-11 03:31N 37°45' W 000°22'1010.8
2015-Apr-11 02:33N 37°36' W 000°29'1110.6
2015-Apr-11 01:33N 37°29' W 000°38'1310.9
2015-Apr-11 00:23N 37°20' W 000°51'227 9.5
2015-Apr-10 00:25N 35°56' W 005°14'5 5.7
2015-Apr-09 23:32N 35°54' W 005°19'0 0.0
2015-Apr-09 22:32N 35°54' W 005°19'0 0.0
2015-Apr-09 21:32N 35°54' W 005°19'1 0.6
2015-Apr-09 20:33N 35°54' W 005°19'0 0.4
2015-Apr-09 19:34N 35°55' W 005°19'1 1.0
2015-Apr-09 18:28N 35°55' W 005°20'0 0.0
2015-Apr-09 17:31N 35°55' W 005°20'0 0.0
2015-Apr-09 16:28N 35°55' W 005°20'0 0.1
2015-Apr-09 15:31N 35°55' W 005°20'0 0.1
2015-Apr-09 14:31N 35°55' W 005°20'0 0.0
2015-Apr-09 13:31N 35°55' W 005°20'0 0.0
2015-Apr-09 12:28N 35°55' W 005°20'0 0.0
2015-Apr-09 11:31N 35°55' W 005°20'0 0.0
2015-Apr-09 10:31N 35°55' W 005°20'0 0.0
2015-Apr-09 09:31N 35°55' W 005°20'0 0.0
2015-Apr-09 08:33N 35°55' W 005°20'0 0.0
2015-Apr-09 07:33N 35°55' W 005°20'7 6.8
2015-Apr-09 06:33N 35°56' W 005°28'  

Dump ship's entire track history